You are listening to:
KOAK Tower (Both) - Oakland, California, United States

KOAK 121453Z 00000KT 9SM CLR 15/11 A2989 RMK AO2 SLP119 T01500111 53018 $

If stream doesn't start automatically press the play button
If stream stops then reload player then press play